Canfield, Ohio
Current Conditions -  °F | °C
As of 9:34 AM on Thursday 30 Oct 2014 (Local Time) from KYNG Reporting Station
Overcast Overcast  
Wind Chill: 43°   Ceiling: 600
Heat Index: 45°   Visibility: 10mi
Dew Point: 42°   Wind: 5mph
Humidity: 90%   Direction: NA
Pressure: 30.1"   Gusts: NA
Location:  41.02°N, 80.76°W
Report Text: KYNG 301334Z VRB04KT 10SM BKN006 BKN022 OVC050 07/06 A3010 RMK AO2 T00720056 $
Loading
Personal Weather Stations






























Interactive Weather Map
Tropical Storm Tracking
New forecast layout! Learn more

10-Day Weather Forecast

Advertisements
Track Severe Weather on mobile